createdAt,value
2019-06-10T00:01:21.403Z,51.70
2019-06-10T00:03:51.800Z,52.10
2019-06-10T00:06:21.258Z,52.30
2019-06-10T00:08:50.728Z,52.10
2019-06-10T00:11:21.210Z,51.80
2019-06-10T00:13:50.818Z,51.90
2019-06-10T00:16:20.793Z,52.10
2019-06-10T00:18:51.041Z,52.30
2019-06-10T00:21:21.740Z,52.50
2019-06-10T00:23:51.772Z,52.60
2019-06-10T00:26:21.711Z,52.80
2019-06-10T00:28:51.311Z,52.90
2019-06-10T00:31:20.946Z,53.00
2019-06-10T00:33:51.914Z,53.40
2019-06-10T00:36:21.650Z,53.30
2019-06-10T00:38:51.785Z,53.40
2019-06-10T00:41:21.935Z,53.50
2019-06-10T00:43:51.806Z,53.30
2019-06-10T00:46:21.362Z,53.00
2019-06-10T00:48:51.092Z,53.10
2019-06-10T00:51:21.005Z,53.30
2019-06-10T00:53:51.463Z,54.00
2019-06-10T00:56:21.596Z,53.40
2019-06-10T00:58:51.515Z,53.60
2019-06-10T01:01:21.925Z,54.10
2019-06-10T01:03:51.443Z,54.40
2019-06-10T01:06:21.485Z,54.70
2019-06-10T01:08:51.326Z,54.70
2019-06-10T01:11:26.681Z,54.80
2019-06-10T01:13:51.780Z,54.80
2019-06-10T01:16:21.680Z,54.50
2019-06-10T01:18:53.607Z,54.10
2019-06-10T01:21:22.176Z,53.70
2019-06-10T01:23:51.610Z,53.70
2019-06-10T01:26:21.502Z,53.70
2019-06-10T01:28:51.598Z,53.70
2019-06-10T01:31:24.244Z,53.50
2019-06-10T01:33:52.376Z,53.10
2019-06-10T01:36:21.671Z,52.80
2019-06-10T01:38:51.342Z,52.60
2019-06-10T01:41:21.383Z,52.40
2019-06-10T01:43:51.430Z,52.40
2019-06-10T01:46:21.263Z,52.50
2019-06-10T01:48:52.185Z,52.90
2019-06-10T01:51:21.678Z,53.10
2019-06-10T01:53:51.476Z,53.50
2019-06-10T01:56:21.597Z,53.90
2019-06-10T01:58:51.488Z,54.20
2019-06-10T02:01:42.787Z,54.50
2019-06-10T02:04:15.819Z,54.90
2019-06-10T02:06:43.188Z,55.00
2019-06-10T02:09:15.051Z,55.20
2019-06-10T02:11:43.427Z,55.30
2019-06-10T02:14:16.324Z,55.30
2019-06-10T02:16:43.754Z,55.20
2019-06-10T02:19:15.515Z,55.20
2019-06-10T02:21:44.027Z,55.20
2019-06-10T02:24:14.797Z,55.20
2019-06-10T02:26:44.339Z,55.40
2019-06-10T02:29:14.680Z,55.30
2019-06-10T02:31:44.653Z,55.20
2019-06-10T02:34:18.400Z,55.20
2019-06-10T02:36:44.911Z,55.30
2019-06-10T02:39:21.549Z,55.20
2019-06-10T02:41:45.867Z,55.00
2019-06-10T02:44:19.662Z,55.10
2019-06-10T02:46:46.134Z,55.30
2019-06-10T02:49:30.168Z,55.50
2019-06-10T02:51:46.431Z,55.80
2019-06-10T02:54:18.363Z,55.70
2019-06-10T02:56:46.901Z,56.00
2019-06-10T02:59:18.167Z,56.10
2019-06-10T03:01:47.199Z,56.30
2019-06-10T03:04:18.136Z,56.40
2019-06-10T03:06:47.651Z,56.40
2019-06-10T03:09:18.396Z,56.30
2019-06-10T03:11:47.948Z,56.00
2019-06-10T03:14:17.746Z,55.90
2019-06-10T03:16:54.079Z,56.00
2019-06-10T03:19:39.733Z,56.00
2019-06-10T03:21:54.358Z,55.90
2019-06-10T03:24:25.139Z,55.90
2019-06-10T03:26:54.626Z,55.70
2019-06-10T03:29:26.327Z,55.30
2019-06-10T03:31:55.572Z,55.10
2019-06-10T03:34:33.528Z,54.80
2019-06-10T03:36:56.004Z,54.60
2019-06-10T03:39:27.394Z,54.50
2019-06-10T03:41:56.262Z,54.40
2019-06-10T03:44:27.095Z,54.30
2019-06-10T03:46:56.542Z,55.00
2019-06-10T03:49:27.176Z,54.30
2019-06-10T03:51:56.849Z,54.00
2019-06-10T03:54:28.247Z,53.70
2019-06-10T03:56:57.184Z,53.30
2019-06-10T03:59:29.069Z,53.00
2019-06-10T04:01:57.425Z,53.00
2019-06-10T04:04:27.143Z,52.90
2019-06-10T04:06:57.577Z,53.30
2019-06-10T04:09:27.479Z,52.50
2019-06-10T04:11:57.884Z,52.30
2019-06-10T04:14:28.470Z,52.40
2019-06-10T04:16:57.935Z,52.40
2019-06-10T04:19:28.712Z,52.30
2019-06-10T04:21:58.079Z,52.20
2019-06-10T04:24:28.543Z,52.00
2019-06-10T04:26:58.009Z,51.80
2019-06-10T04:29:28.645Z,51.70
2019-06-10T04:31:58.269Z,51.60
2019-06-10T04:34:30.170Z,51.50
2019-06-10T04:36:58.643Z,51.50
2019-06-10T04:39:29.177Z,51.50
2019-06-10T04:41:58.617Z,51.50
2019-06-10T04:44:29.339Z,51.50
2019-06-10T04:46:58.795Z,51.90
2019-06-10T04:49:28.639Z,51.60
2019-06-10T04:51:59.078Z,51.60
2019-06-10T04:54:29.922Z,51.70
2019-06-10T04:56:59.440Z,51.40
2019-06-10T04:59:29.158Z,51.30
2019-06-10T05:02:02.323Z,51.30
2019-06-10T05:04:32.909Z,51.40
2019-06-10T05:07:02.234Z,51.50
2019-06-10T05:09:33.615Z,51.30
2019-06-10T05:12:02.979Z,51.40
2019-06-10T05:14:33.474Z,51.30
2019-06-10T05:17:03.048Z,51.40
2019-06-10T05:19:33.781Z,51.30
2019-06-10T05:22:03.305Z,51.20
2019-06-10T05:24:34.326Z,51.20
2019-06-10T05:27:03.698Z,51.20
2019-06-10T05:29:34.110Z,51.20
2019-06-10T05:32:03.658Z,51.20
2019-06-10T05:34:34.640Z,51.30
2019-06-10T05:37:03.895Z,51.40
2019-06-10T05:39:35.135Z,51.50
2019-06-10T05:42:04.295Z,52.20
2019-06-10T05:44:34.620Z,51.50
2019-06-10T05:47:04.270Z,51.70
2019-06-10T05:49:35.958Z,51.60
2019-06-10T05:52:04.622Z,51.60
2019-06-10T05:54:35.422Z,51.60
2019-06-10T05:57:05.105Z,51.40
2019-06-10T05:59:35.910Z,51.40
2019-06-10T06:02:05.531Z,51.40
2019-06-10T06:04:36.124Z,51.40
2019-06-10T06:07:06.146Z,51.40
2019-06-10T06:09:35.772Z,51.40
2019-06-10T06:12:05.029Z,51.50
2019-06-10T06:14:35.992Z,51.50
2019-06-10T06:17:05.442Z,51.50
2019-06-10T06:19:37.342Z,51.50
2019-06-10T06:22:05.622Z,51.50
2019-06-10T06:24:35.681Z,51.50
2019-06-10T06:27:05.187Z,51.40
2019-06-10T06:29:36.606Z,51.30
2019-06-10T06:32:05.797Z,51.30
2019-06-10T06:34:35.836Z,51.10
2019-06-10T06:37:06.112Z,51.00
2019-06-10T06:39:36.720Z,50.90
2019-06-10T06:42:06.393Z,50.60
2019-06-10T06:44:37.674Z,50.50
2019-06-10T06:47:06.605Z,50.40
2019-06-10T06:49:37.111Z,50.30
2019-06-10T06:52:06.853Z,50.10
2019-06-10T06:54:36.599Z,50.00
2019-06-10T06:57:07.025Z,49.90
2019-06-10T06:59:37.407Z,49.90
2019-06-10T07:02:07.445Z,50.00
2019-06-10T07:04:37.493Z,49.90
2019-06-10T07:07:07.664Z,50.40
2019-06-10T07:09:37.762Z,49.60
2019-06-10T07:12:08.208Z,49.40
2019-06-10T07:14:40.568Z,49.20
2019-06-10T07:17:12.429Z,49.00
2019-06-10T07:19:43.735Z,48.80
2019-06-10T07:22:15.426Z,48.70
2019-06-10T07:24:47.284Z,48.50
2019-06-10T07:27:13.988Z,48.40
2019-06-10T07:29:47.043Z,48.40
2019-06-10T07:32:14.305Z,48.30
2019-06-10T07:34:46.826Z,48.20
2019-06-10T07:37:14.487Z,48.00
2019-06-10T07:39:45.280Z,48.00
2019-06-10T07:42:14.809Z,47.90
2019-06-10T07:44:45.335Z,48.00
2019-06-10T07:47:14.644Z,47.80
2019-06-10T07:49:45.417Z,47.60
2019-06-10T07:52:19.384Z,47.40
2019-06-10T07:54:45.885Z,47.50
2019-06-10T07:57:15.219Z,47.30
2019-06-10T07:59:45.840Z,47.20
2019-06-10T08:02:15.419Z,47.30
2019-06-10T08:04:46.044Z,47.30
2019-06-10T08:07:15.519Z,47.10
2019-06-10T08:09:45.818Z,47.20
2019-06-10T08:12:15.275Z,47.00
2019-06-10T08:14:45.749Z,47.00
2019-06-10T08:17:15.186Z,46.80
2019-06-10T08:19:49.581Z,46.80
2019-06-10T08:22:29.891Z,46.80
2019-06-10T08:24:47.719Z,46.80
2019-06-10T08:27:17.342Z,46.60
2019-06-10T08:29:49.498Z,46.40
2019-06-10T08:32:17.711Z,46.40
2019-06-10T08:34:48.112Z,46.50
2019-06-10T08:37:17.518Z,46.40
2019-06-10T08:39:47.716Z,46.50
2019-06-10T08:42:17.181Z,46.50
2019-06-10T08:44:48.236Z,46.60
2019-06-10T08:47:17.412Z,46.70
2019-06-10T08:49:49.024Z,46.60
2019-06-10T08:52:17.619Z,46.90
2019-06-10T08:54:49.775Z,47.20
2019-06-10T08:57:17.820Z,47.30
2019-06-10T08:59:48.233Z,47.30
2019-06-10T09:02:18.153Z,47.40
2019-06-10T09:04:50.329Z,47.40
2019-06-10T09:07:18.501Z,47.20
2019-06-10T09:09:50.031Z,47.10
2019-06-10T09:12:32.212Z,47.30
2019-06-10T09:14:50.696Z,47.30
2019-06-10T09:17:22.816Z,47.40
2019-06-10T09:19:53.946Z,47.50
2019-06-10T09:22:23.587Z,47.50
2019-06-10T09:24:56.161Z,47.60
2019-06-10T09:27:26.919Z,47.60
2019-06-10T09:29:55.647Z,47.60
2019-06-10T09:32:25.285Z,47.70
2019-06-10T09:34:57.362Z,48.00
2019-06-10T09:37:25.539Z,48.20
2019-06-10T09:39:59.472Z,49.20
2019-06-10T09:42:25.783Z,48.80
2019-06-10T09:44:55.637Z,49.20
2019-06-10T09:47:25.983Z,49.60
2019-06-10T09:49:55.859Z,49.90
2019-06-10T09:52:25.206Z,50.20
2019-06-10T09:54:56.814Z,50.60
2019-06-10T09:57:25.369Z,50.70
2019-06-10T09:59:56.565Z,50.60
2019-06-10T10:02:25.671Z,50.50
2019-06-10T10:04:58.415Z,50.60
2019-06-10T10:07:26.590Z,51.30
2019-06-10T10:09:57.298Z,50.80
2019-06-10T10:12:26.778Z,50.80
2019-06-10T10:14:56.540Z,50.80
2019-06-10T10:17:26.013Z,50.90
2019-06-10T10:19:57.050Z,50.50
2019-06-10T10:22:26.513Z,50.30
2019-06-10T10:24:57.018Z,50.00
2019-06-10T10:27:26.407Z,50.10
2019-06-10T10:29:57.346Z,50.10
2019-06-10T10:32:26.840Z,50.20
2019-06-10T10:34:56.530Z,50.10
2019-06-10T10:37:25.963Z,50.20
2019-06-10T10:39:56.636Z,50.40
2019-06-10T10:42:39.107Z,50.40
2019-06-10T10:44:59.172Z,50.50
2019-06-10T10:47:27.977Z,50.60
2019-06-10T10:49:57.238Z,50.60
2019-06-10T10:52:26.571Z,50.30
2019-06-10T10:54:55.866Z,50.00
2019-06-10T10:57:25.149Z,49.60
2019-06-10T10:59:56.170Z,49.30
2019-06-10T11:02:25.481Z,49.40
2019-06-10T11:04:56.865Z,49.50
2019-06-10T11:07:25.851Z,49.60
2019-06-10T11:09:56.811Z,49.60
2019-06-10T11:12:27.171Z,49.40
2019-06-10T11:15:01.385Z,49.10
2019-06-10T11:17:27.462Z,48.80
2019-06-10T11:19:57.736Z,48.30
2019-06-10T11:22:27.195Z,47.60
2019-06-10T11:24:57.758Z,46.80
2019-06-10T11:27:27.074Z,46.20
2019-06-10T11:29:58.699Z,45.50
2019-06-10T11:32:27.248Z,45.10
2019-06-10T11:34:57.042Z,44.80
2019-06-10T11:37:26.597Z,44.20
2019-06-10T11:39:56.508Z,43.40
2019-06-10T11:42:25.948Z,42.70
2019-06-10T11:44:58.007Z,42.20
2019-06-10T11:47:26.288Z,41.70
2019-06-10T11:49:56.845Z,41.30
2019-06-10T11:52:26.491Z,41.30
2019-06-10T11:55:10.934Z,41.60
2019-06-10T11:57:26.726Z,41.40
2019-06-10T11:59:57.701Z,41.10
2019-06-10T12:02:27.636Z,40.50
2019-06-10T12:05:00.299Z,39.80
2019-06-10T12:07:28.253Z,39.10
2019-06-10T12:10:00.512Z,38.60
2019-06-10T12:12:28.487Z,38.80
2019-06-10T12:14:59.612Z,39.40
2019-06-10T12:17:41.988Z,39.80
2019-06-10T12:20:02.889Z,40.10
2019-06-10T12:22:32.962Z,40.20
2019-06-10T12:25:26.871Z,39.90
2019-06-10T12:27:32.878Z,39.90
2019-06-10T12:30:04.949Z,39.90
2019-06-10T12:32:33.725Z,39.20
2019-06-10T12:35:05.489Z,38.60
2019-06-10T12:37:34.560Z,38.40
2019-06-10T12:40:05.815Z,38.10
2019-06-10T12:42:35.294Z,38.10
2019-06-10T12:45:08.443Z,38.40
2019-06-10T12:47:36.622Z,38.90
2019-06-10T12:50:08.459Z,39.30
2019-06-10T12:52:38.106Z,39.80
2019-06-10T12:55:07.574Z,40.00
2019-06-10T12:57:36.876Z,39.60
2019-06-10T13:00:19.216Z,39.40
2019-06-10T13:02:39.724Z,39.30
2019-06-10T13:05:12.182Z,39.50
2019-06-10T13:07:43.651Z,40.60
2019-06-10T13:10:13.338Z,40.00
2019-06-10T13:12:42.989Z,39.50
2019-06-10T13:15:12.519Z,39.30
2019-06-10T13:17:44.010Z,39.30
2019-06-10T13:20:13.547Z,39.10
2019-06-10T13:22:43.809Z,38.80
2019-06-10T13:25:13.499Z,39.00
2019-06-10T13:27:42.967Z,39.10
2019-06-10T13:30:12.458Z,39.30
2019-06-10T13:32:43.467Z,39.50
2019-06-10T13:35:12.856Z,39.80
2019-06-10T13:37:42.854Z,40.10
2019-06-10T13:40:13.115Z,40.20
2019-06-10T13:42:42.622Z,40.40
2019-06-10T13:45:12.638Z,40.80
2019-06-10T13:47:43.033Z,40.90
2019-06-10T13:50:14.480Z,40.30
2019-06-10T13:52:43.965Z,39.60
2019-06-10T13:55:14.588Z,39.10
2019-06-10T13:57:44.780Z,38.30
2019-06-10T14:00:15.725Z,37.70
2019-06-10T14:02:45.061Z,37.50
2019-06-10T14:05:18.254Z,36.80
2019-06-10T14:07:45.961Z,36.60
2019-06-10T14:10:18.134Z,36.30
2019-06-10T14:12:48.997Z,36.30
2019-06-10T14:15:17.922Z,36.00
2019-06-10T14:17:47.473Z,36.40
2019-06-10T14:20:16.964Z,36.70
2019-06-10T14:22:46.238Z,37.00
2019-06-10T14:25:16.907Z,37.50
2019-06-10T14:27:46.529Z,37.70
2019-06-10T14:30:16.022Z,38.10
2019-06-10T14:32:45.295Z,38.10
2019-06-10T14:35:17.193Z,37.90
2019-06-10T14:37:45.597Z,37.80
2019-06-10T14:40:21.008Z,38.10
2019-06-10T14:42:45.805Z,38.20
2019-06-10T14:45:16.567Z,38.10
2019-06-10T14:47:46.136Z,37.90
2019-06-10T14:50:17.332Z,37.50
2019-06-10T14:52:46.607Z,37.00
2019-06-10T14:55:18.563Z,36.60
2019-06-10T14:57:47.942Z,36.00
2019-06-10T15:00:18.749Z,35.80
2019-06-10T15:02:48.125Z,35.40
2019-06-10T15:05:17.641Z,35.30
2019-06-10T15:07:46.860Z,35.60
2019-06-10T15:10:17.927Z,35.70
2019-06-10T15:12:47.304Z,35.60
2019-06-10T15:15:16.744Z,35.50
2019-06-10T15:17:46.088Z,35.50
2019-06-10T15:20:17.071Z,35.30
2019-06-10T15:22:46.384Z,39.20
2019-06-10T15:25:17.586Z,35.10
2019-06-10T15:27:46.862Z,35.30
2019-06-10T15:30:23.456Z,35.50
2019-06-10T15:32:47.146Z,35.40
2019-06-10T15:35:19.567Z,35.10
2019-06-10T15:37:47.566Z,35.30
2019-06-10T15:40:18.297Z,35.30
2019-06-10T15:42:48.017Z,35.70
2019-06-10T15:45:19.929Z,35.90
2019-06-10T15:47:49.548Z,36.00
2019-06-10T15:50:19.063Z,36.00
2019-06-10T15:52:48.360Z,36.20
2019-06-10T15:55:47.698Z,36.20
2019-06-10T15:57:48.679Z,36.50
2019-06-10T16:00:23.431Z,37.00
2019-06-10T16:02:49.123Z,36.90
2019-06-10T16:05:19.089Z,37.00
2019-06-10T16:07:49.439Z,36.80
2019-06-10T16:10:21.309Z,37.10
2019-06-10T16:12:49.745Z,37.20
2019-06-10T16:15:19.498Z,37.40
2019-06-10T16:17:53.399Z,37.60
2019-06-10T16:20:21.527Z,38.30
2019-06-10T16:22:52.391Z,37.70
2019-06-10T16:25:25.184Z,38.00
2019-06-10T16:27:54.468Z,38.20
2019-06-10T16:30:25.938Z,38.40
2019-06-10T16:32:54.774Z,38.00
2019-06-10T16:35:26.718Z,38.60
2019-06-10T16:37:56.771Z,39.00
2019-06-10T16:40:27.234Z,39.10
2019-06-10T16:42:56.675Z,39.40
2019-06-10T16:45:30.509Z,40.20
2019-06-10T16:47:57.088Z,44.10
2019-06-10T16:50:27.460Z,43.50
2019-06-10T16:52:56.931Z,44.30
2019-06-10T16:55:27.294Z,44.40
2019-06-10T16:57:59.577Z,44.80
2019-06-10T17:00:27.800Z,44.90
2019-06-10T17:02:57.242Z,44.90
2019-06-10T17:05:27.605Z,45.20
2019-06-10T17:07:57.581Z,45.80
2019-06-10T17:10:28.265Z,38.60
2019-06-10T17:13:03.343Z,39.00
2019-06-10T17:15:32.774Z,39.30
2019-06-10T17:18:02.883Z,39.60
2019-06-10T17:20:34.147Z,39.80
2019-06-10T17:23:26.025Z,40.00
2019-06-10T17:25:54.429Z,40.40
2019-06-10T17:28:28.693Z,40.70
2019-06-10T17:33:27.891Z,50.20
2019-06-10T17:35:57.080Z,53.00
2019-06-10T17:38:26.888Z,54.00
2019-06-10T17:40:56.241Z,44.20
2019-06-10T17:43:25.533Z,42.90
2019-06-10T17:45:54.842Z,43.00
2019-06-10T17:48:25.704Z,59.60
2019-06-10T17:50:55.285Z,65.90
2019-06-10T17:53:24.562Z,56.00
2019-06-10T17:55:54.249Z,61.10
2019-06-10T17:58:40.790Z,44.20
2019-06-10T18:00:54.582Z,44.40
2019-06-10T18:03:24.947Z,44.60
2019-06-10T18:05:54.862Z,44.80
2019-06-10T18:08:24.701Z,45.00
2019-06-10T18:10:55.306Z,45.20
2019-06-10T18:13:25.024Z,45.40
2019-06-10T18:15:55.414Z,47.00
2019-06-10T18:18:24.724Z,45.60
2019-06-10T18:20:54.049Z,45.80
2019-06-10T18:23:24.831Z,45.90
2019-06-10T18:25:54.378Z,46.10
2019-06-10T18:28:24.874Z,46.30
2019-06-10T18:30:54.321Z,46.40
2019-06-10T18:33:23.755Z,46.40
2019-06-10T18:35:53.475Z,46.60
2019-06-10T18:38:22.808Z,46.60
2019-06-10T18:40:53.545Z,46.70
2019-06-10T18:43:23.243Z,46.90
2019-06-10T18:45:53.207Z,46.80
2019-06-10T18:48:23.297Z,46.70
2019-06-10T18:50:53.467Z,46.50
2019-06-10T18:53:23.771Z,46.60
2019-06-10T18:55:54.889Z,46.70
2019-06-10T18:58:24.476Z,46.80
2019-06-10T19:01:03.414Z,47.10
2019-06-10T19:03:24.841Z,47.30
2019-06-10T19:05:54.099Z,47.50
2019-06-10T19:08:23.521Z,47.70
2019-06-10T19:10:53.663Z,47.90
2019-06-10T19:13:23.154Z,47.90
2019-06-10T19:15:53.149Z,48.00
2019-06-10T19:18:23.489Z,48.10
2019-06-10T19:20:53.613Z,48.10
2019-06-10T19:23:23.115Z,48.80
2019-06-10T19:25:52.796Z,48.30
2019-06-10T19:28:22.939Z,49.10
2019-06-10T19:30:53.400Z,48.50
2019-06-10T19:33:23.687Z,48.60
2019-06-10T19:35:53.372Z,48.90
2019-06-10T19:38:23.206Z,49.00
2019-06-10T19:40:52.619Z,49.00
2019-06-10T19:43:22.844Z,49.10
2019-06-10T19:45:52.954Z,49.30
2019-06-10T19:48:22.366Z,49.40
2019-06-10T19:50:53.884Z,49.60
2019-06-10T19:53:22.684Z,49.50
2019-06-10T19:55:53.283Z,49.80
2019-06-10T19:58:23.303Z,49.90
2019-06-10T20:00:54.517Z,49.80
2019-06-10T20:03:23.951Z,49.90
2019-06-10T20:05:53.313Z,50.20
2019-06-10T20:08:22.829Z,50.40
2019-06-10T20:10:53.089Z,50.60
2019-06-10T20:13:23.003Z,50.70
2019-06-10T20:15:52.708Z,50.90
2019-06-10T20:18:22.714Z,51.10
2019-06-10T20:20:54.108Z,51.10
2019-06-10T20:23:23.133Z,51.30
2019-06-10T20:25:52.818Z,51.40
2019-06-10T20:28:22.478Z,51.50
2019-06-10T20:30:53.027Z,51.60
2019-06-10T20:33:35.853Z,51.70
2019-06-10T20:36:03.489Z,51.80
2019-06-10T20:38:33.443Z,51.80
2019-06-10T20:41:02.911Z,52.00
2019-06-10T20:43:32.802Z,52.10
2019-06-10T20:46:02.912Z,52.20
2019-06-10T20:48:33.543Z,52.40
2019-06-10T20:51:03.353Z,52.50
2019-06-10T20:53:33.784Z,52.50
2019-06-10T20:56:03.999Z,52.70
2019-06-10T20:58:33.430Z,52.60
2019-06-10T21:01:04.629Z,52.80
2019-06-10T21:03:33.815Z,52.90
2019-06-10T21:06:04.200Z,53.70
2019-06-10T21:08:33.917Z,53.20
2019-06-10T21:11:03.346Z,53.20
2019-06-10T21:13:33.043Z,53.30
2019-06-10T21:16:03.725Z,53.60
2019-06-10T21:18:33.356Z,53.60
2019-06-10T21:21:02.675Z,53.80
2019-06-10T21:23:32.067Z,53.60
2019-06-10T21:26:03.014Z,53.80
2019-06-10T21:28:32.684Z,53.80
2019-06-10T21:31:02.745Z,53.90
2019-06-10T21:33:33.221Z,54.00
2019-06-10T21:36:03.840Z,54.20
2019-06-10T21:38:33.469Z,54.20
2019-06-10T21:41:03.279Z,54.20
2019-06-10T21:43:33.331Z,54.30
2019-06-10T21:46:03.717Z,54.30
2019-06-10T21:48:33.507Z,54.40
2019-06-10T21:51:03.253Z,54.50
2019-06-10T21:53:32.622Z,54.60
2019-06-10T21:56:01.882Z,54.70
2019-06-10T21:58:32.802Z,54.80
2019-06-10T22:01:12.500Z,54.90
2019-06-10T22:03:33.412Z,54.80
2019-06-10T22:06:02.747Z,54.90
2019-06-10T22:08:33.345Z,55.10
2019-06-10T22:11:03.024Z,55.20
2019-06-10T22:13:32.876Z,55.30
2019-06-10T22:16:03.317Z,55.30
2019-06-10T22:18:32.759Z,55.50
2019-06-10T22:21:02.911Z,55.60
2019-06-10T22:23:33.079Z,55.60
2019-06-10T22:26:02.889Z,55.70
2019-06-10T22:28:32.822Z,55.70
2019-06-10T22:31:15.991Z,55.90
2019-06-10T22:33:33.141Z,56.00
2019-06-10T22:36:02.531Z,56.10
2019-06-10T22:38:32.818Z,56.10
2019-06-10T22:41:03.297Z,56.30
2019-06-10T22:43:32.781Z,56.40
2019-06-10T22:46:03.933Z,58.80
2019-06-10T22:48:33.366Z,56.60
2019-06-10T22:51:02.747Z,57.00
2019-06-10T22:53:33.348Z,60.00
2019-06-10T22:56:03.032Z,59.80
2019-06-10T22:58:32.416Z,59.90
2019-06-10T23:01:04.037Z,60.30
2019-06-10T23:03:32.815Z,60.20
2019-06-10T23:06:02.617Z,60.40
2019-06-10T23:08:33.412Z,59.70
2019-06-10T23:11:03.070Z,60.90
2019-06-10T23:13:32.498Z,61.40
2019-06-10T23:16:02.582Z,59.00
2019-06-10T23:18:32.140Z,62.00
2019-06-10T23:21:04.085Z,62.40
2019-06-10T23:23:32.643Z,62.60
2019-06-10T23:26:02.962Z,63.20
2019-06-10T23:28:32.811Z,63.80
2019-06-10T23:31:04.884Z,63.60
2019-06-10T23:33:33.356Z,64.30
2019-06-10T23:36:03.991Z,65.20
2019-06-10T23:38:33.561Z,65.60
2019-06-10T23:41:03.758Z,59.60
2019-06-10T23:43:33.305Z,58.80
2019-06-10T23:46:04.370Z,58.80
2019-06-10T23:48:33.924Z,59.00
2019-06-10T23:51:04.898Z,59.00
2019-06-10T23:53:34.389Z,59.10
2019-06-10T23:56:05.026Z,59.30
2019-06-10T23:58:34.492Z,59.30
